createdAt,value
2016-08-31T00:04:14.199Z,1016.72
2016-08-31T00:09:11.044Z,1016.60
2016-08-31T00:14:07.594Z,1016.66
2016-08-31T00:19:04.146Z,1016.52
2016-08-31T00:24:03.167Z,1016.55
2016-08-31T00:28:59.251Z,1016.47
2016-08-31T00:33:55.772Z,1016.42
2016-08-31T00:38:52.201Z,1016.46
2016-08-31T00:43:48.802Z,1016.48
2016-08-31T00:48:45.274Z,1016.37
2016-08-31T00:53:42.545Z,1016.51
2016-08-31T00:58:39.152Z,1016.31
2016-08-31T01:03:35.629Z,1016.33
2016-08-31T01:08:32.588Z,1016.28
2016-08-31T01:13:29.167Z,1016.21
2016-08-31T01:18:25.698Z,1016.23
2016-08-31T01:23:22.326Z,1016.13
2016-08-31T01:28:18.936Z,1016.13
2016-08-31T01:33:15.640Z,1016.05
2016-08-31T01:38:12.229Z,1016.05
2016-08-31T01:43:08.744Z,1016.00
2016-08-31T01:48:05.578Z,1016.01
2016-08-31T01:53:02.005Z,1015.97
2016-08-31T01:57:58.621Z,1015.99
2016-08-31T02:02:55.108Z,1015.95
2016-08-31T02:07:51.726Z,1015.88
2016-08-31T02:12:48.443Z,1015.84
2016-08-31T02:17:44.932Z,1015.75
2016-08-31T02:22:41.508Z,1015.80
2016-08-31T02:27:38.728Z,1015.75
2016-08-31T02:32:35.360Z,1015.70
2016-08-31T02:37:31.902Z,1015.63
2016-08-31T02:42:28.591Z,1015.61
2016-08-31T02:47:25.117Z,1015.59
2016-08-31T02:52:22.029Z,1015.60
2016-08-31T02:57:18.641Z,1015.56
2016-08-31T03:02:15.147Z,1015.45
2016-08-31T03:07:11.722Z,1015.42
2016-08-31T03:12:08.775Z,1015.36
2016-08-31T03:17:05.628Z,1015.42
2016-08-31T03:22:02.154Z,1015.35
2016-08-31T03:26:58.659Z,1015.39
2016-08-31T03:31:55.618Z,1015.37
2016-08-31T03:36:52.308Z,1015.46
2016-08-31T03:41:49.099Z,1015.34
2016-08-31T03:46:45.821Z,1015.36
2016-08-31T03:51:42.565Z,1015.38
2016-08-31T03:56:39.112Z,1015.37
2016-08-31T04:01:35.516Z,1015.31
2016-08-31T04:06:32.457Z,1015.29
2016-08-31T04:11:28.842Z,1015.25
2016-08-31T04:16:25.281Z,1015.30
2016-08-31T04:21:21.844Z,1015.22
2016-08-31T04:26:18.328Z,1015.30
2016-08-31T04:31:14.879Z,1015.28
2016-08-31T04:36:11.794Z,1015.20
2016-08-31T04:41:08.237Z,1015.20
2016-08-31T04:46:04.706Z,1015.28
2016-08-31T04:51:01.829Z,1015.09
2016-08-31T04:55:58.176Z,1015.21
2016-08-31T05:00:55.147Z,1015.16
2016-08-31T05:05:51.957Z,1015.16
2016-08-31T05:10:48.554Z,1015.14
2016-08-31T05:15:45.173Z,1015.04
2016-08-31T05:20:41.746Z,1015.09
2016-08-31T05:25:38.280Z,1015.05
2016-08-31T05:30:34.968Z,1015.11
2016-08-31T05:35:31.662Z,1015.07
2016-08-31T05:40:27.993Z,1015.05
2016-08-31T05:45:24.572Z,1014.95
2016-08-31T05:50:21.364Z,1015.03
2016-08-31T05:55:18.231Z,1014.98
2016-08-31T06:00:15.915Z,1014.97
2016-08-31T06:05:12.881Z,1014.96
2016-08-31T06:10:09.747Z,1014.85
2016-08-31T06:15:06.580Z,1014.88
2016-08-31T06:20:05.745Z,1014.85
2016-08-31T06:25:02.772Z,1014.81
2016-08-31T06:29:59.201Z,1014.83
2016-08-31T06:34:56.901Z,1014.80
2016-08-31T06:39:53.254Z,1014.78
2016-08-31T06:44:50.024Z,1014.85
2016-08-31T06:49:46.726Z,1014.88
2016-08-31T06:54:43.505Z,1014.89
2016-08-31T06:59:40.096Z,1014.93
2016-08-31T07:04:36.745Z,1014.93
2016-08-31T07:09:33.399Z,1014.86
2016-08-31T07:14:30.184Z,1014.80
2016-08-31T07:19:27.012Z,1014.88
2016-08-31T07:24:24.002Z,1014.85
2016-08-31T07:29:20.640Z,1014.82
2016-08-31T07:34:20.114Z,1014.77
2016-08-31T07:39:16.259Z,1014.82
2016-08-31T07:44:14.096Z,1014.84
2016-08-31T07:49:10.523Z,1014.73
2016-08-31T07:54:08.704Z,1014.68
2016-08-31T07:59:05.497Z,1014.67
2016-08-31T08:04:02.527Z,1014.61
2016-08-31T08:09:00.086Z,1014.60
2016-08-31T08:13:57.274Z,1014.66
2016-08-31T08:18:54.985Z,1014.53
2016-08-31T08:23:52.486Z,1014.66
2016-08-31T08:28:49.721Z,1014.63
2016-08-31T08:33:46.726Z,1014.64
2016-08-31T08:43:44.395Z,1014.60
2016-08-31T08:48:41.073Z,1014.56
2016-08-31T08:53:40.608Z,1014.55
2016-08-31T08:58:36.441Z,1014.57
2016-08-31T09:03:32.644Z,1014.61
2016-08-31T09:08:28.820Z,1014.52
2016-08-31T09:13:25.148Z,1014.53
2016-08-31T09:18:21.520Z,1014.51
2016-08-31T09:23:17.939Z,1014.37
2016-08-31T09:28:14.831Z,1014.27
2016-08-31T09:33:11.200Z,1014.35
2016-08-31T09:38:07.987Z,1014.26
2016-08-31T09:43:04.984Z,1014.26
2016-08-31T09:48:01.595Z,1014.21
2016-08-31T09:52:58.405Z,1014.19
2016-08-31T09:57:55.061Z,1014.25
2016-08-31T10:02:51.688Z,1014.15
2016-08-31T10:07:48.305Z,1014.11
2016-08-31T10:12:44.980Z,1014.18
2016-08-31T10:17:41.544Z,1014.08
2016-08-31T10:22:38.238Z,1013.98
2016-08-31T10:27:35.113Z,1014.03
2016-08-31T10:32:31.844Z,1014.01
2016-08-31T10:37:28.678Z,1014.08
2016-08-31T10:42:25.568Z,1013.99
2016-08-31T10:47:22.035Z,1013.88
2016-08-31T10:52:18.699Z,1013.89
2016-08-31T10:57:15.608Z,1013.78
2016-08-31T11:02:12.737Z,1013.80
2016-08-31T11:07:09.414Z,1013.69
2016-08-31T11:12:06.110Z,1013.73
2016-08-31T11:17:02.701Z,1013.83
2016-08-31T11:21:59.703Z,1013.86
2016-08-31T11:26:56.326Z,1013.77
2016-08-31T11:31:52.910Z,1013.67
2016-08-31T11:36:52.229Z,1013.74
2016-08-31T11:41:48.216Z,1013.67
2016-08-31T11:46:44.787Z,1013.64
2016-08-31T11:51:42.429Z,1013.63
2016-08-31T11:56:39.051Z,1013.56
2016-08-31T12:01:35.727Z,1013.45
2016-08-31T12:06:32.393Z,1013.49
2016-08-31T12:11:29.012Z,1013.38
2016-08-31T12:16:26.041Z,1013.35
2016-08-31T12:21:22.718Z,1013.26
2016-08-31T12:26:19.465Z,1013.31
2016-08-31T12:31:16.203Z,1013.31
2016-08-31T12:36:13.852Z,1013.29
2016-08-31T12:41:10.218Z,1013.19
2016-08-31T12:46:08.082Z,1013.04
2016-08-31T12:51:06.899Z,1013.05
2016-08-31T12:56:03.070Z,1013.05
2016-08-31T13:00:59.709Z,1012.95
2016-08-31T13:05:58.949Z,1012.96
2016-08-31T13:10:54.759Z,1012.86
2016-08-31T13:15:51.995Z,1012.79
2016-08-31T13:20:49.093Z,1012.85
2016-08-31T13:25:45.660Z,1012.82
2016-08-31T13:30:42.559Z,1012.69
2016-08-31T13:35:39.216Z,1012.69
2016-08-31T13:40:36.870Z,1012.64
2016-08-31T13:45:33.290Z,1012.62
2016-08-31T13:50:30.004Z,1012.60
2016-08-31T13:55:27.408Z,1012.68
2016-08-31T14:00:24.390Z,1012.63
2016-08-31T14:05:21.115Z,1012.64
2016-08-31T14:10:18.032Z,1012.60
2016-08-31T14:15:14.485Z,1012.64
2016-08-31T14:20:12.331Z,1012.55
2016-08-31T14:25:08.818Z,1012.58
2016-08-31T14:30:05.267Z,1012.50
2016-08-31T14:35:02.278Z,1012.53
2016-08-31T14:39:58.938Z,1012.62
2016-08-31T14:44:55.996Z,1012.56
2016-08-31T14:49:52.666Z,1012.57
2016-08-31T14:54:49.217Z,1012.49
2016-08-31T14:59:46.171Z,1012.49
2016-08-31T15:04:45.831Z,1012.48
2016-08-31T15:09:41.837Z,1012.51
2016-08-31T15:14:38.358Z,1012.62
2016-08-31T15:19:35.005Z,1012.54
2016-08-31T15:24:31.623Z,1012.51
2016-08-31T15:29:28.318Z,1012.60
2016-08-31T15:34:24.933Z,1012.54
2016-08-31T15:39:21.714Z,1012.55
2016-08-31T15:44:18.429Z,1012.53
2016-08-31T15:49:15.270Z,1012.44
2016-08-31T15:54:14.416Z,1012.49
2016-08-31T15:59:10.559Z,1012.58
2016-08-31T16:04:07.292Z,1012.55
2016-08-31T16:09:04.002Z,1012.60
2016-08-31T16:14:01.154Z,1012.55
2016-08-31T16:18:59.002Z,1012.48
2016-08-31T16:23:55.347Z,1012.53
2016-08-31T16:28:52.018Z,1012.46
2016-08-31T16:33:51.134Z,1012.56
2016-08-31T16:38:47.145Z,1012.43
2016-08-31T16:43:43.756Z,1012.56
2016-08-31T16:48:40.399Z,1012.47
2016-08-31T16:53:37.062Z,1012.44
2016-08-31T16:58:33.648Z,1012.45
2016-08-31T17:03:30.326Z,1012.46
2016-08-31T17:08:27.066Z,1012.46
2016-08-31T17:13:23.678Z,1012.56
2016-08-31T17:18:20.470Z,1012.50
2016-08-31T17:23:17.578Z,1012.45
2016-08-31T17:28:14.243Z,1012.44
2016-08-31T17:33:10.900Z,1012.44
2016-08-31T17:38:07.391Z,1012.50
2016-08-31T17:43:04.010Z,1012.43
2016-08-31T17:48:00.766Z,1012.47
2016-08-31T17:52:57.572Z,1012.50
2016-08-31T17:57:54.144Z,1012.59
2016-08-31T18:02:53.448Z,1012.48
2016-08-31T18:07:49.516Z,1012.66
2016-08-31T18:12:48.504Z,1012.55
2016-08-31T18:17:44.872Z,1012.56
2016-08-31T18:22:41.426Z,1012.63
2016-08-31T18:27:37.900Z,1012.59
2016-08-31T18:32:34.439Z,1012.77
2016-08-31T18:37:31.124Z,1012.80
2016-08-31T18:42:28.187Z,1012.90
2016-08-31T18:47:24.770Z,1012.94
2016-08-31T18:52:21.446Z,1012.99
2016-08-31T18:57:18.531Z,1013.07
2016-08-31T19:02:15.485Z,1013.15
2016-08-31T19:07:13.598Z,1013.16
2016-08-31T19:12:09.669Z,1013.21
2016-08-31T19:17:06.266Z,1013.22
2016-08-31T19:22:03.431Z,1013.24
2016-08-31T19:27:00.145Z,1013.25
2016-08-31T19:31:56.841Z,1013.24
2016-08-31T19:36:53.336Z,1013.39
2016-08-31T19:41:52.545Z,1013.37
2016-08-31T19:46:48.578Z,1013.39
2016-08-31T19:51:47.760Z,1013.44
2016-08-31T19:56:44.021Z,1013.49
2016-08-31T20:01:40.634Z,1013.50
2016-08-31T20:06:37.196Z,1013.49
2016-08-31T20:11:34.739Z,1013.55
2016-08-31T20:16:31.304Z,1013.52
2016-08-31T20:21:29.362Z,1013.57
2016-08-31T20:26:25.514Z,1013.53
2016-08-31T20:31:23.674Z,1013.53
2016-08-31T20:36:20.292Z,1013.50
2016-08-31T20:41:18.303Z,1013.51
2016-08-31T20:46:14.634Z,1013.57
2016-08-31T20:51:11.203Z,1013.44
2016-08-31T20:56:07.788Z,1013.55
2016-08-31T21:01:04.545Z,1013.68
2016-08-31T21:06:01.176Z,1013.70
2016-08-31T21:10:57.641Z,1013.61
2016-08-31T21:15:54.261Z,1013.74
2016-08-31T21:20:50.877Z,1013.71
2016-08-31T21:25:47.507Z,1013.71
2016-08-31T21:30:44.162Z,1013.83
2016-08-31T21:35:41.144Z,1013.80
2016-08-31T21:40:37.870Z,1013.91
2016-08-31T21:45:34.456Z,1013.91
2016-08-31T21:50:30.972Z,1013.87
2016-08-31T21:55:27.430Z,1013.89
2016-08-31T22:00:24.068Z,1013.91
2016-08-31T22:05:20.806Z,1013.89
2016-08-31T22:10:17.395Z,1013.92
2016-08-31T22:15:13.928Z,1013.98
2016-08-31T22:20:10.833Z,1013.99
2016-08-31T22:25:07.796Z,1014.05
2016-08-31T22:30:04.663Z,1013.96
2016-08-31T22:35:01.254Z,1014.04
2016-08-31T22:39:57.868Z,1014.00
2016-08-31T22:44:54.493Z,1013.92
2016-08-31T22:49:51.394Z,1013.96
2016-08-31T22:54:48.042Z,1013.86
2016-08-31T22:59:44.605Z,1013.90
2016-08-31T23:04:41.571Z,1013.84
2016-08-31T23:09:39.445Z,1013.83
2016-08-31T23:14:36.082Z,1013.79
2016-08-31T23:19:34.955Z,1013.88
2016-08-31T23:24:30.833Z,1013.86
2016-08-31T23:29:27.474Z,1013.77
2016-08-31T23:34:23.960Z,1013.78
2016-08-31T23:39:20.630Z,1013.89
2016-08-31T23:44:19.506Z,1013.86
2016-08-31T23:49:15.589Z,1013.89
2016-08-31T23:54:12.074Z,1013.81
2016-08-31T23:59:08.689Z,1013.82
